BGSO2: Deep Fork River, Beggs, Okla

Data processed at Wed May 22 2019 23:50


All information presented herein is the property of the government of the United States of America and may be revised or deleted at any time without prior notice.
Dissemination of this information without the expressed written consent of the Public Affairs Office, Tulsa District U.S. Army Corps of Engineers is strictly prohibited.
These data are gathered electronically and, as presented, have not undergone any form of quality control. These data are not guaranteed to be valid or correct.
Go to home page.
Go to station list.
Go to home page.

Upstream stations:

Downstream station:
Previous Day
Next Day
Current Day
    
SHEF ID:       BGSO2     Deep Fork near Beggs, OK
STATION TYPE:  
Regulating: Stage =    18.00, Flow =     8391

               PRECIP     STAGE  STAGE(2)  RIV-FLOW  BAT-LOAD
                   in        ft        ft       cfs      volt
              Ccp-Rev   Ccp-Rev   Ccp-Rev   Ccp-Rev   Ccp-Rev
(US/Central)
05/22 00:00      0.00     17.39     17.93      7944     12.57
05/22 01:00      0.00     17.61     18.03      8104     12.49
05/22 02:00      0.00     17.67     18.07      8148     12.49
05/22 03:00      0.00     17.54     18.07      8053     12.49
05/22 04:00      0.00     17.77     18.16      8221     12.49
05/22 05:00      0.00     17.73     18.22      8192     12.41
05/22 06:00      0.00     17.74     18.33      8199     12.41
05/22 07:00      0.00     17.90     18.37      8317     12.41
05/22 08:00      0.00     18.07     18.49      8445     12.41
05/22 09:00      0.00     18.05     18.66      8430     12.57
05/22 10:00      0.00     18.24     18.75      8575     13.05
05/22 11:00      0.00     18.28     18.90      8606     13.29
05/22 12:00      0.00     18.47     19.06      8753     13.29
05/22 13:00      0.00     18.71     19.24      8955     13.37
05/22 14:00      0.00     18.79     19.43      9024     13.29
05/22 15:00      0.00     19.01     19.60      9214     13.21
05/22 16:00      0.00     19.27     19.78      9448     13.21
05/22 17:00      0.07     19.36     20.00      9535     13.21
05/22 18:00      0.71     19.74     20.22      9913     12.81
05/22 19:00      0.00     19.91     20.44     10088     12.81
05/22 20:00      0.00     20.03     20.69     10212     12.65
05/22 21:00      0.00     20.38     20.86     10580     12.65
05/22 22:00      0.00     20.53     21.06     10743     12.57
05/22 23:00      0.00     20.68     21.19     10907     12.57